Time;durP1;ratioP1;P1;durP2;ratioP2;P2;SDS_P1;SDS_P2;PMS_P1;PMS_P2;Temp;Humidity;BMP_temperature;BMP_pressure;BME280_temperature;BME280_humidity;BME280_pressure;Samples;Min_cycle;Max_cycle;Signal;HPM_P1;HPM_P2
2023/05/15 00:01:39;;;;;;;5.22;4.65;;;;;;;;;;5012124;28;20049;-31
2023/05/15 00:04:06;;;;;;;5.47;4.97;;;21.30;76.30;;;;;;4994783;28;20133;-31
2023/05/15 00:06:33;;;;;;;5.05;4.47;;;20.60;76.30;;;;;;5012692;28;20104;-30
2023/05/15 00:08:59;;;;;;;5.05;4.55;;;21.40;65.50;;;;;;5012505;28;20132;-31
2023/05/15 00:11:26;;;;;;;5.68;4.60;;;21.50;75.90;;;;;;5012976;28;20406;-30
2023/05/15 00:13:53;;;;;;;5.38;4.80;;;;;;;;;;5012025;28;20046;-30
2023/05/15 00:16:21;;;;;;;4.78;4.28;;;21.30;76.30;;;;;;5012498;28;20076;-31
2023/05/15 00:18:48;;;;;;;5.38;4.88;;;20.90;75.70;;;;;;5012109;28;20049;-30
2023/05/15 00:21:15;;;;;;;5.93;4.90;;;21.20;67.40;;;;;;5011865;28;20149;-31
2023/05/15 00:23:42;;;;;;;5.55;4.80;;;21.20;69.70;;;;;;5011775;28;20132;-30
2023/05/15 00:26:09;;;;;;;6.10;4.70;;;21.00;75.90;;;;;;5012378;28;20045;-30
2023/05/15 00:28:35;;;;;;;7.45;5.10;;;20.50;75.60;;;;;;5012218;28;20137;-30
2023/05/15 00:31:02;;;;;;;5.25;4.75;;;20.60;71.60;;;;;;5012059;28;20124;-31
2023/05/15 00:33:30;;;;;;;5.68;4.95;;;19.60;75.10;;;;;;4992365;28;20052;-30
2023/05/15 00:35:57;;;;;;;5.10;4.60;;;20.00;75.70;;;;;;4993101;28;20137;-30
2023/05/15 00:38:24;;;;;;;6.15;4.75;;;21.10;76.80;;;;;;5012233;28;20050;-30
2023/05/15 00:40:50;;;;;;;5.80;4.82;;;20.50;62.10;;;;;;5012147;28;20410;-31
2023/05/15 00:43:17;;;;;;;5.18;4.68;;;21.20;69.90;;;;;;5011778;28;20056;-30
2023/05/15 00:45:44;;;;;;;5.18;4.65;;;20.80;76.60;;;;;;5011525;28;20479;-30
2023/05/15 00:48:11;;;;;;;6.65;5.30;;;;;;;;;;5011820;28;20088;-30
2023/05/15 00:50:41;;;;;;;6.65;5.55;;;21.30;76.60;;;;;;5011810;28;20054;-30
2023/05/15 00:53:07;;;;;;;5.55;4.97;;;20.20;75.40;;;;;;5012142;28;20049;-30
2023/05/15 00:55:34;;;;;;;6.18;5.07;;;20.10;76.30;;;;;;5011939;28;20057;-30
2023/05/15 00:58:01;;;;;;;6.47;5.63;;;20.60;63.40;;;;;;5012088;28;20133;-31
2023/05/15 01:00:28;;;;;;;5.93;5.30;;;20.50;75.70;;;;;;5011940;28;20138;-30
2023/05/15 01:02:54;;;;;;;5.68;5.07;;;21.10;76.00;;;;;;5011543;28;20149;-30
2023/05/15 01:05:21;;;;;;;6.10;5.30;;;21.30;61.40;;;;;;5011517;28;20129;-31
2023/05/15 01:07:52;;;;;;;5.60;5.00;;;21.00;76.30;;;;;;5011832;28;20057;-30
2023/05/15 01:10:19;;;;;;;6.32;5.30;;;20.80;57.00;;;;;;5012072;28;20132;-32
2023/05/15 01:12:47;;;;;;;6.25;5.55;;;;;;;;;;5011766;28;20057;-30
2023/05/15 01:15:14;;;;;;;6.00;5.20;;;;;;;;;;5011548;28;20407;-30
2023/05/15 01:17:40;;;;;;;6.85;5.70;;;20.80;76.00;;;;;;5011996;28;20459;-30
2023/05/15 01:20:09;;;;;;;6.63;5.90;;;21.10;76.10;;;;;;5011341;28;20053;-30
2023/05/15 01:22:47;;;;;;;6.03;5.40;;;21.90;65.60;;;;;;5011222;28;20136;-31
2023/05/15 01:25:45;;;;;;;6.57;5.88;;;20.70;57.00;;;;;;5011651;28;20054;-32
2023/05/15 01:28:14;;;;;;;6.20;5.50;;;20.90;67.90;;;;;;5012065;28;20061;-30
2023/05/15 01:30:41;;;;;;;6.40;5.63;;;20.30;76.50;;;;;;5011652;28;20062;-30
2023/05/15 01:33:11;;;;;;;6.45;5.72;;;20.90;72.00;;;;;;5014950;28;20472;-31
2023/05/15 01:35:40;;;;;;;6.93;5.95;;;20.90;60.10;;;;;;5015123;28;20054;-30
2023/05/15 01:38:13;;;;;;;6.47;5.47;;;20.50;76.30;;;;;;5014793;28;20489;-30
2023/05/15 01:40:39;;;;;;;7.63;6.22;;;21.50;76.80;;;;;;5015205;28;20133;-30
2023/05/15 01:43:08;;;;;;;6.65;5.97;;;20.70;57.10;;;;;;5014922;28;20049;-32
2023/05/15 01:45:36;;;;;;;6.60;5.90;;;20.80;64.40;;;;;;5014868;28;20137;-31
2023/05/15 01:48:02;;;;;;;9.07;6.30;;;20.80;64.60;;;;;;5015008;28;20050;-30
2023/05/15 01:50:29;;;;;;;6.95;6.25;;;20.80;75.90;;;;;;5014676;28;20049;-30
2023/05/15 01:52:57;;;;;;;7.68;6.25;;;21.00;76.20;;;;;;5014665;28;20046;-30
2023/05/15 01:55:24;;;;;;;6.95;6.25;;;20.70;76.20;;;;;;5014963;28;20046;-30
2023/05/15 01:57:51;;;;;;;6.80;5.85;;;;;;;;;;5015073;28;20084;-31
2023/05/15 02:00:19;;;;;;;7.35;6.22;;;20.60;64.10;;;;;;5014544;28;20138;-30
2023/05/15 02:02:47;;;;;;;7.57;6.53;;;20.80;77.00;;;;;;5014774;28;20057;-30
2023/05/15 02:05:14;;;;;;;7.55;6.38;;;20.70;76.60;;;;;;5014496;28;20130;-30
2023/05/15 02:07:41;;;;;;;7.80;6.32;;;20.60;57.10;;;;;;5014809;28;20129;-32
2023/05/15 02:10:09;;;;;;;7.38;6.50;;;20.60;57.10;;;;;;5014360;28;20152;-30
2023/05/15 02:12:36;;;;;;;7.32;6.38;;;;;;;;;;5014259;28;20129;-30
2023/05/15 02:15:03;;;;;;;6.93;6.22;;;20.60;57.10;;;;;;5014529;28;20056;-31
2023/05/15 02:17:30;;;;;;;6.32;5.70;;;21.40;76.40;;;;;;5014328;28;20529;-30
2023/05/15 02:19:58;;;;;;;7.70;6.20;;;19.80;76.00;;;;;;5014291;28;20155;-30
2023/05/15 02:22:25;;;;;;;7.20;6.20;;;20.70;76.50;;;;;;5014228;28;20287;-30
2023/05/15 02:24:52;;;;;;;8.25;6.80;;;21.20;66.70;;;;;;5014054;28;20049;-31
2023/05/15 02:27:20;;;;;;;8.60;6.47;;;20.40;76.40;;;;;;5014280;28;20049;-30
2023/05/15 02:29:56;;;;;;;6.70;5.97;;;20.40;76.00;;;;;;5014377;28;20049;-30
2023/05/15 02:32:27;;;;;;;7.97;6.60;;;20.20;75.90;;;;;;5013983;28;20054;-30
2023/05/15 02:35:03;;;;;;;7.68;6.60;;;20.10;64.60;;;;;;5014184;28;20056;-30
2023/05/15 02:37:32;;;;;;;7.32;6.47;;;20.10;75.90;;;;;;5013376;28;20122;-30
2023/05/15 02:39:59;;;;;;;7.03;6.32;;;20.40;76.80;;;;;;5014053;28;20081;-30
2023/05/15 02:42:26;;;;;;;6.75;6.05;;;;;;;;;;5013578;28;20137;-30
2023/05/15 02:44:53;;;;;;;7.05;6.35;;;20.50;57.00;;;;;;5013795;28;20128;-30
2023/05/15 02:47:20;;;;;;;6.88;6.18;;;20.80;60.20;;;;;;5013369;28;20042;-31
2023/05/15 02:49:47;;;;;;;6.55;5.80;;;20.30;75.90;;;;;;5013717;28;20045;-31
2023/05/15 02:52:14;;;;;;;6.88;6.20;;;20.30;70.10;;;;;;5013787;28;20137;-30
2023/05/15 02:54:42;;;;;;;7.28;6.53;;;20.10;74.50;;;;;;5013884;28;20049;-30
2023/05/15 02:57:10;;;;;;;7.50;6.70;;;;;;;;;;5013747;28;20132;-30
2023/05/15 02:59:37;;;;;;;6.47;5.78;;;20.90;57.30;;;;;;5013705;28;20138;-31
2023/05/15 03:02:04;;;;;;;7.00;6.05;;;21.40;61.80;;;;;;5013725;28;20081;-31
2023/05/15 03:04:31;;;;;;;7.78;6.97;;;;;;;;;;5013164;28;20050;-31
2023/05/15 03:06:58;;;;;;;8.00;6.60;;;20.30;76.00;;;;;;5013138;28;20132;-30
2023/05/15 03:09:25;;;;;;;7.82;6.25;;;;;;;;;;5013676;28;20486;-32
2023/05/15 03:11:53;;;;;;;7.80;7.00;;;20.90;76.30;;;;;;5013474;28;20133;-30
2023/05/15 03:14:20;;;;;;;7.05;6.35;;;19.70;76.60;;;;;;5013166;28;20570;-30
2023/05/15 03:16:46;;;;;;;7.00;6.30;;;20.40;76.50;;;;;;5010643;28;20125;-30
2023/05/15 03:19:14;;;;;;;7.00;6.20;;;;;;;;;;5001626;28;20149;-31
2023/05/15 03:21:41;;;;;;;7.00;6.28;;;;;;;;;;5007239;28;20387;-32
2023/05/15 03:24:07;;;;;;;7.03;6.22;;;20.70;68.20;;;;;;5009759;28;20073;-30
2023/05/15 03:26:34;;;;;;;6.93;6.22;;;21.10;76.80;;;;;;5012541;28;20056;-30
2023/05/15 03:29:02;;;;;;;7.45;6.15;;;20.80;63.40;;;;;;5012806;28;20136;-32
2023/05/15 03:31:29;;;;;;;7.70;6.90;;;;;;;;;;5010285;28;20513;-32
2023/05/15 03:33:56;;;;;;;8.02;7.22;;;21.00;77.20;;;;;;5012241;28;20129;-33
2023/05/15 03:36:23;;;;;;;7.63;6.82;;;20.80;76.30;;;;;;5009163;28;20133;-33
2023/05/15 03:38:50;;;;;;;7.60;6.80;;;;;;;;;;5012281;28;20395;-33
2023/05/15 03:41:17;;;;;;;7.70;6.90;;;20.90;77.20;;;;;;5011874;28;20105;-33
2023/05/15 03:43:44;;;;;;;7.78;6.97;;;;;;;;;;5011513;28;20128;-32
2023/05/15 03:46:12;;;;;;;7.47;6.68;;;20.40;76.40;;;;;;5010319;28;20125;-33
2023/05/15 03:48:39;;;;;;;7.78;6.97;;;19.40;75.80;;;;;;5012294;28;20124;-33
2023/05/15 03:51:05;;;;;;;7.60;6.80;;;20.30;76.90;;;;;;5011884;28;20133;-33
2023/05/15 03:53:32;;;;;;;8.77;7.15;;;20.20;65.10;;;;;;5012107;28;20129;-30
2023/05/15 03:55:59;;;;;;;8.30;7.30;;;20.60;71.10;;;;;;5012289;28;20188;-31
2023/05/15 03:58:26;;;;;;;8.05;6.70;;;21.30;76.60;;;;;;5012127;28;20052;-31
2023/05/15 04:00:53;;;;;;;8.40;7.30;;;;;;;;;;5012176;28;20125;-31
2023/05/15 04:03:21;;;;;;;7.60;6.80;;;20.30;64.20;;;;;;5011347;28;20100;-31
2023/05/15 04:05:48;;;;;;;9.40;7.38;;;20.00;76.40;;;;;;5011590;28;20116;-31
2023/05/15 04:08:15;;;;;;;7.97;7.18;;;20.20;76.40;;;;;;5012023;28;20057;-31
2023/05/15 04:10:42;;;;;;;8.25;7.43;;;20.00;67.90;;;;;;5007258;28;20046;-31
2023/05/15 04:13:09;;;;;;;8.95;7.43;;;;;;;;;;4994945;28;20076;-31
2023/05/15 04:15:36;;;;;;;8.70;7.57;;;21.50;76.80;;;;;;4992603;28;20050;-31
2023/05/15 04:18:03;;;;;;;9.82;8.23;;;;;;;;;;4993348;28;20046;-31
2023/05/15 04:20:32;;;;;;;9.07;7.75;;;20.50;76.40;;;;;;5012182;28;20065;-31
2023/05/15 04:22:59;;;;;;;9.52;7.97;;;;;;;;;;5011941;28;20133;-30
2023/05/15 04:25:26;;;;;;;10.38;7.72;;;19.80;76.80;;;;;;5012061;28;20046;-31
2023/05/15 04:27:53;;;;;;;9.77;8.20;;;20.00;60.20;;;;;;5012425;28;20054;-31
2023/05/15 04:30:20;;;;;;;8.38;7.43;;;;;;;;;;5012026;28;20130;-31
2023/05/15 04:32:47;;;;;;;9.98;8.48;;;20.50;76.70;;;;;;5012060;28;20060;-31
2023/05/15 04:35:14;;;;;;;10.25;8.40;;;20.10;76.00;;;;;;5011770;28;20125;-31
2023/05/15 04:37:44;;;;;;;9.55;8.30;;;20.00;76.30;;;;;;5011562;28;20045;-31
2023/05/15 04:40:13;;;;;;;9.57;8.20;;;21.20;76.70;;;;;;5012053;28;20054;-31
2023/05/15 04:42:40;;;;;;;9.05;8.15;;;;;;;;;;5011713;28;20046;-31
2023/05/15 04:45:08;;;;;;;9.02;7.80;;;19.80;76.00;;;;;;5012129;28;20052;-31
2023/05/15 04:47:34;;;;;;;9.18;7.88;;;19.90;76.00;;;;;;5012272;28;20125;-31
2023/05/15 04:50:01;;;;;;;8.98;8.02;;;20.40;76.70;;;;;;5011381;28;20447;-31
2023/05/15 04:52:28;;;;;;;8.80;7.88;;;19.90;63.60;;;;;;5011808;28;20045;-31
2023/05/15 04:54:56;;;;;;;8.95;7.88;;;20.00;76.10;;;;;;5011659;28;20046;-31
2023/05/15 04:57:23;;;;;;;9.25;7.95;;;20.70;77.40;;;;;;5011975;28;20053;-31
2023/05/15 04:59:49;;;;;;;10.13;8.45;;;20.40;77.20;;;;;;5011626;28;20538;-31
2023/05/15 05:02:16;;;;;;;8.70;7.65;;;;;;;;;;5011887;28;20136;-30
2023/05/15 05:04:44;;;;;;;8.38;7.47;;;20.10;76.20;;;;;;5011376;28;20129;-31
2023/05/15 05:07:10;;;;;;;9.48;7.72;;;21.20;65.80;;;;;;5014118;28;20046;-31
2023/05/15 05:09:38;;;;;;;8.50;7.60;;;20.00;76.10;;;;;;5016039;28;20060;-31
2023/05/15 05:12:07;;;;;;;8.70;7.47;;;20.20;77.10;;;;;;5015427;28;20133;-31
2023/05/15 05:14:35;;;;;;;7.85;6.97;;;;;;;;;;5015099;28;20514;-30
2023/05/15 05:17:01;;;;;;;7.95;7.15;;;19.30;76.10;;;;;;5015568;28;20404;-31
2023/05/15 05:19:28;;;;;;;8.30;7.40;;;19.70;67.40;;;;;;5015374;28;20128;-31
2023/05/15 05:21:57;;;;;;;7.97;6.97;;;;;;;;;;5015104;28;20477;-30
2023/05/15 05:24:23;;;;;;;7.63;6.70;;;19.80;76.90;;;;;;5015161;28;20518;-31
2023/05/15 05:26:50;;;;;;;8.40;7.50;;;20.10;68.20;;;;;;5015268;28;20136;-31
2023/05/15 05:29:18;;;;;;;8.85;7.30;;;20.10;56.80;;;;;;5015528;28;20132;-31
2023/05/15 05:31:46;;;;;;;8.10;6.90;;;20.10;56.90;;;;;;5015483;28;20132;-31
2023/05/15 05:34:13;;;;;;;8.18;7.28;;;;;;;;;;5014620;28;20045;-31
2023/05/15 05:36:40;;;;;;;7.95;7.15;;;20.20;77.20;;;;;;5014622;28;20049;-31
2023/05/15 05:39:06;;;;;;;8.63;7.72;;;19.30;76.80;;;;;;5014584;28;20081;-31
2023/05/15 05:41:34;;;;;;;8.13;7.15;;;;;;;;;;5015048;28;20570;-30
2023/05/15 05:44:01;;;;;;;7.82;7.03;;;;;;;;;;5014935;28;20054;-31
2023/05/15 05:46:29;;;;;;;8.38;7.50;;;20.00;67.80;;;;;;4997692;28;20064;-31
2023/05/15 05:48:56;;;;;;;7.60;6.57;;;20.00;75.70;;;;;;5014459;28;20050;-31
2023/05/15 05:51:23;;;;;;;8.02;7.22;;;;;;;;;;5014727;28;20145;-31
2023/05/15 05:53:50;;;;;;;8.13;7.07;;;;;;;;;;5014358;28;20132;-30
2023/05/15 05:56:17;;;;;;;7.82;6.70;;;19.80;76.20;;;;;;4996679;28;20046;-31
2023/05/15 05:58:43;;;;;;;7.70;6.90;;;20.80;76.60;;;;;;5014430;28;20056;-31
2023/05/15 06:01:10;;;;;;;8.05;7.25;;;19.80;61.10;;;;;;5014676;28;20137;-31
2023/05/15 06:03:38;;;;;;;7.35;6.60;;;19.80;76.10;;;;;;5014406;28;20057;-31
2023/05/15 06:06:06;;;;;;;6.90;6.20;;;18.90;75.70;;;;;;5014551;28;20465;-31
2023/05/15 06:08:33;;;;;;;7.45;6.68;;;19.80;76.20;;;;;;5014553;28;20507;-31
2023/05/15 06:10:59;;;;;;;7.47;6.68;;;19.60;66.50;;;;;;5014296;28;20060;-31
2023/05/15 06:13:26;;;;;;;7.30;6.45;;;;;;;;;;5014189;28;20511;-30
2023/05/15 06:15:53;;;;;;;6.63;5.90;;;;;;;;;;5014467;28;20082;-31
2023/05/15 06:18:21;;;;;;;6.85;6.05;;;;;;;;;;5013277;28;20137;-30
2023/05/15 06:20:49;;;;;;;7.22;6.53;;;20.70;76.60;;;;;;5014114;28;20063;-31
2023/05/15 06:23:16;;;;;;;7.35;6.55;;;;;;;;;;5013842;28;20046;-31
2023/05/15 06:25:43;;;;;;;7.15;6.20;;;;;;;;;;5014092;28;20065;-30
2023/05/15 06:28:09;;;;;;;7.25;6.55;;;19.70;76.10;;;;;;5014104;28;20529;-31
2023/05/15 06:30:36;;;;;;;7.97;6.85;;;19.20;76.80;;;;;;5013936;28;20157;-31
2023/05/15 06:33:03;;;;;;;7.43;6.63;;;;;;;;;;5013903;28;20128;-31
2023/05/15 06:35:30;;;;;;;7.18;6.43;;;19.80;76.60;;;;;;5013987;28;20266;-31
2023/05/15 06:37:58;;;;;;;7.30;6.50;;;20.00;56.80;;;;;;5013527;28;20049;-31
2023/05/15 06:40:25;;;;;;;6.78;6.07;;;18.90;75.70;;;;;;5013857;28;20054;-31
2023/05/15 06:42:52;;;;;;;7.63;6.78;;;;;;;;;;5013533;28;20056;-31
2023/05/15 06:45:18;;;;;;;7.80;6.60;;;20.10;76.70;;;;;;5013761;28;20049;-31
2023/05/15 06:47:46;;;;;;;6.93;6.00;;;;;;;;;;5013862;28;20046;-30
2023/05/15 06:50:12;;;;;;;7.47;6.28;;;20.10;76.50;;;;;;5013724;28;20086;-31
2023/05/15 06:52:39;;;;;;;6.93;6.22;;;;;;;;;;5013607;28;20054;-31
2023/05/15 06:55:08;;;;;;;8.07;6.25;;;19.60;76.00;;;;;;5013207;28;20049;-31
2023/05/15 06:57:36;;;;;;;6.45;5.72;;;;;;;;;;5008834;28;20554;-31
2023/05/15 07:00:04;;;;;;;6.85;6.13;;;;;;;;;;5007206;28;20142;-31
2023/05/15 07:02:31;;;;;;;6.63;5.90;;;;;;;;;;5004590;28;20050;-31
2023/05/15 07:04:57;;;;;;;7.45;6.30;;;20.30;77.40;;;;;;5008615;28;20121;-31
2023/05/15 07:07:24;;;;;;;7.32;6.15;;;19.60;63.30;;;;;;5013117;28;20128;-31
2023/05/15 07:09:51;;;;;;;7.05;5.93;;;20.00;76.20;;;;;;5013486;28;20137;-31
2023/05/15 07:12:19;;;;;;;6.82;6.10;;;20.50;77.40;;;;;;5013347;28;20080;-31
2023/05/15 07:14:45;;;;;;;7.07;6.38;;;19.20;60.30;;;;;;5010950;28;20124;-30
2023/05/15 07:17:13;;;;;;;7.43;6.10;;;;;;;;;;4998911;28;20050;-30
2023/05/15 07:19:39;;;;;;;6.78;6.07;;;20.20;76.80;;;;;;4993846;28;20133;-31
2023/05/15 07:22:06;;;;;;;7.13;6.38;;;;;;;;;;4993284;28;20590;-30
2023/05/15 07:24:33;;;;;;;7.53;6.47;;;19.90;76.50;;;;;;5006947;28;20477;-31
2023/05/15 07:27:00;;;;;;;8.82;6.30;;;19.80;77.00;;;;;;5013158;28;20038;-30
2023/05/15 07:29:28;;;;;;;6.90;6.10;;;19.20;56.30;;;;;;5012735;28;20050;-30
2023/05/15 07:31:55;;;;;;;6.70;6.00;;;;;;;;;;5013164;28;20133;-30
2023/05/15 07:34:22;;;;;;;7.45;6.28;;;19.40;76.00;;;;;;4995363;28;20140;-31
2023/05/15 07:36:49;;;;;;;6.90;6.20;;;20.00;61.30;;;;;;5012642;28;20042;-30
2023/05/15 07:39:16;;;;;;;7.10;6.10;;;19.70;76.30;;;;;;5005566;28;20050;-31
2023/05/15 07:41:42;;;;;;;6.95;6.18;;;19.60;75.70;;;;;;5003106;28;20128;-31
2023/05/15 07:44:09;;;;;;;6.68;5.97;;;;;;;;;;5006344;28;20141;-30
2023/05/15 07:46:38;;;;;;;7.13;6.40;;;19.80;74.90;;;;;;5012628;28;20125;-31
2023/05/15 07:49:04;;;;;;;6.90;6.20;;;20.50;77.20;;;;;;5010066;28;20061;-31
2023/05/15 07:51:31;;;;;;;7.05;6.15;;;;;;;;;;5012591;28;20129;-30
2023/05/15 07:53:58;;;;;;;6.50;5.90;;;19.70;67.40;;;;;;5011758;28;20124;-31
2023/05/15 07:56:25;;;;;;;7.32;6.22;;;19.20;76.10;;;;;;5012108;28;20140;-31
2023/05/15 07:58:52;;;;;;;8.02;5.75;;;19.40;75.50;;;;;;5012243;28;20042;-30
2023/05/15 08:01:19;;;;;;;7.00;6.15;;;20.10;75.90;;;;;;5012354;28;20046;-31
2023/05/15 08:03:47;;;;;;;6.97;6.13;;;19.50;70.80;;;;;;5011835;28;20567;-31
2023/05/15 08:06:15;;;;;;;6.25;5.65;;;20.00;69.20;;;;;;5009513;28;20120;-31
2023/05/15 08:08:42;;;;;;;6.15;5.55;;;;;;;;;;5011758;28;20766;-31
2023/05/15 08:11:09;;;;;;;6.40;5.78;;;19.70;76.30;;;;;;5012177;28;20042;-31
2023/05/15 08:13:35;;;;;;;6.45;5.70;;;20.40;76.60;;;;;;5011983;28;20046;-31
2023/05/15 08:16:02;;;;;;;5.88;5.28;;;20.50;67.20;;;;;;5011690;28;20498;-30
2023/05/15 08:18:29;;;;;;;6.63;6.03;;;19.60;76.20;;;;;;5010591;28;20052;-31
2023/05/15 08:20:57;;;;;;;6.13;5.53;;;20.20;56.80;;;;;;5010825;28;20460;-29
2023/05/15 08:23:24;;;;;;;6.30;5.70;;;;;;;;;;5011112;28;20130;-31
2023/05/15 08:25:51;;;;;;;6.05;5.45;;;20.10;76.00;;;;;;5012048;28;20050;-31
2023/05/15 08:28:18;;;;;;;6.43;5.75;;;20.00;76.80;;;;;;5011682;28;20042;-33
2023/05/15 08:30:45;;;;;;;6.43;5.70;;;;;;;;;;5011944;28;20414;-33
2023/05/15 08:33:11;;;;;;;6.13;5.53;;;20.00;75.90;;;;;;5010846;28;20534;-33
2023/05/15 08:35:38;;;;;;;9.45;5.60;;;20.50;76.30;;;;;;5011070;28;20125;-33
2023/05/15 08:38:06;;;;;;;6.38;5.78;;;20.10;66.40;;;;;;5010293;28;20570;-33
2023/05/15 08:40:33;;;;;;;7.82;5.35;;;20.20;67.40;;;;;;5010857;28;20121;-33
2023/05/15 08:43:03;;;;;;;5.97;5.40;;;21.00;77.20;;;;;;5010084;28;20124;-33
2023/05/15 08:45:29;;;;;;;5.57;5.07;;;20.80;57.80;;;;;;5010478;28;20556;-33
2023/05/15 08:47:56;;;;;;;6.07;5.20;;;20.60;76.10;;;;;;5008247;28;20410;-33
2023/05/15 08:50:23;;;;;;;7.25;5.10;;;;;;;;;;5005797;28;20056;-32
2023/05/15 08:52:50;;;;;;;5.40;4.88;;;;;;;;;;5011319;28;20050;-33
2023/05/15 08:55:18;;;;;;;6.18;5.03;;;20.60;56.30;;;;;;5011920;28;20081;-33
2023/05/15 08:57:45;;;;;;;5.97;4.88;;;;;;;;;;4994293;28;20069;-32
2023/05/15 09:00:13;;;;;;;6.43;5.20;;;20.70;74.30;;;;;;5011702;28;20133;-33
2023/05/15 09:02:40;;;;;;;5.05;4.53;;;20.40;75.00;;;;;;5011048;28;20049;-33
2023/05/15 09:05:08;;;;;;;6.40;4.80;;;21.20;72.30;;;;;;4993721;28;20133;-33
2023/05/15 09:07:35;;;;;;;4.72;4.28;;;21.90;75.60;;;;;;5011767;28;20409;-33
2023/05/15 09:10:03;;;;;;;4.90;4.40;;;20.50;66.60;;;;;;5011403;28;20192;-33
2023/05/15 09:12:32;;;;;;;5.82;4.80;;;22.00;75.60;;;;;;5011423;28;20630;-33
2023/05/15 09:15:08;;;;;;;6.85;4.43;;;20.90;75.10;;;;;;5011367;28;20141;-33
2023/05/15 09:17:35;;;;;;;4.85;4.45;;;21.50;75.70;;;;;;5011864;28;20125;-33
2023/05/15 09:20:03;;;;;;;4.70;4.20;;;20.90;66.30;;;;;;5011658;28;20744;-33
2023/05/15 09:22:30;;;;;;;6.60;4.43;;;;;;;;;;5011707;28;20451;-33
2023/05/15 09:24:57;;;;;;;6.03;4.53;;;21.00;74.90;;;;;;5011768;28;20133;-33
2023/05/15 09:27:25;;;;;;;5.18;4.07;;;20.70;74.70;;;;;;5011126;28;20621;-33
2023/05/15 09:29:55;;;;;;;5.75;4.30;;;20.70;74.70;;;;;;5011359;28;20073;-33
2023/05/15 09:32:22;;;;;;;5.00;4.50;;;21.40;68.90;;;;;;5011291;28;20058;-33
2023/05/15 09:34:49;;;;;;;4.40;4.00;;;;;;;;;;5011491;28;20555;-33
2023/05/15 09:37:28;;;;;;;4.63;4.10;;;20.40;75.20;;;;;;5011091;28;20050;-33
2023/05/15 09:39:55;;;;;;;5.72;4.30;;;;;;;;;;5011577;28;20136;-32
2023/05/15 09:42:22;;;;;;;5.18;4.20;;;20.40;74.10;;;;;;5011002;28;20049;-33
2023/05/15 09:44:48;;;;;;;5.00;4.15;;;21.50;75.60;;;;;;5011233;28;20133;-33
2023/05/15 09:47:16;;;;;;;4.68;4.20;;;21.10;70.70;;;;;;5011496;28;20148;-33
2023/05/15 09:49:44;;;;;;;4.50;4.10;;;22.30;69.40;;;;;;5011496;28;20128;-33
2023/05/15 09:52:11;;;;;;;5.28;3.78;;;;;;;;;;5011372;28;20137;-31
2023/05/15 09:54:38;;;;;;;6.20;3.67;;;21.40;68.70;;;;;;5014994;28;20136;-33
2023/05/15 09:57:08;;;;;;;4.97;3.92;;;21.50;74.90;;;;;;5014837;28;20125;-33
2023/05/15 09:59:34;;;;;;;4.05;3.65;;;21.00;67.10;;;;;;5014724;28;20558;-33
2023/05/15 10:02:01;;;;;;;4.50;4.00;;;;;;;;;;5014540;28;20056;-31
2023/05/15 10:04:33;;;;;;;4.10;3.70;;;20.10;73.80;;;;;;5014595;28;20042;-33
2023/05/15 10:07:00;;;;;;;4.43;4.00;;;21.50;65.10;;;;;;5014482;28;20050;-33
2023/05/15 10:09:29;;;;;;;4.43;3.50;;;21.20;75.20;;;;;;5014893;28;20129;-33
2023/05/15 10:11:57;;;;;;;3.90;3.50;;;21.50;66.00;;;;;;5013963;28;20054;-33
2023/05/15 10:14:24;;;;;;;4.22;3.50;;;21.70;60.00;;;;;;5013319;28;20053;-33
2023/05/15 10:16:51;;;;;;;4.20;3.80;;;20.50;73.70;;;;;;5014828;28;20129;-33
2023/05/15 10:19:17;;;;;;;5.35;3.53;;;21.30;74.20;;;;;;5014253;28;20655;-33
2023/05/15 10:21:45;;;;;;;4.07;3.20;;;21.80;63.00;;;;;;5014557;28;20133;-33
2023/05/15 10:24:12;;;;;;;4.25;3.50;;;;;;;;;;5014132;28;20494;-32
2023/05/15 10:26:40;;;;;;;4.72;3.63;;;20.80;74.60;;;;;;5014384;28;20132;-33
2023/05/15 10:29:09;;;;;;;3.50;3.20;;;20.60;73.60;;;;;;5014505;28;20046;-33
2023/05/15 10:31:36;;;;;;;4.97;3.28;;;20.60;74.10;;;;;;5013938;28;20049;-33
2023/05/15 10:34:02;;;;;;;4.05;2.90;;;21.70;59.60;;;;;;5014115;28;20057;-33
2023/05/15 10:36:29;;;;;;;3.72;2.92;;;20.60;73.40;;;;;;5013643;28;20046;-31
2023/05/15 10:38:58;;;;;;;4.22;3.03;;;21.50;54.80;;;;;;5013005;28;20069;-30
2023/05/15 10:41:25;;;;;;;3.88;3.40;;;21.00;74.00;;;;;;5006334;28;20046;-30
2023/05/15 10:43:52;;;;;;;3.65;3.15;;;21.50;73.90;;;;;;5005639;28;20169;-31
2023/05/15 10:46:19;;;;;;;3.42;2.80;;;;;;;;;;5002643;28;20470;-30
2023/05/15 10:48:46;;;;;;;3.28;2.70;;;;;;;;;;5003824;28;20212;-30
2023/05/15 10:51:17;;;;;;;3.50;3.20;;;21.20;65.10;;;;;;5004101;28;20122;-31
2023/05/15 10:53:44;;;;;;;3.40;3.10;;;21.60;74.40;;;;;;5013343;28;20053;-30
2023/05/15 10:56:15;;;;;;;3.92;3.03;;;21.60;54.70;;;;;;4994809;28;20052;-31
2023/05/15 10:58:46;;;;;;;4.10;3.10;;;21.60;54.60;;;;;;5011369;28;20042;-31
2023/05/15 11:01:25;;;;;;;3.45;3.10;;;21.80;73.80;;;;;;5009160;28;20173;-31
2023/05/15 11:03:52;;;;;;;3.72;3.22;;;21.60;73.70;;;;;;5001728;28;20046;-30
2023/05/15 11:06:18;;;;;;;3.45;3.15;;;21.20;73.90;;;;;;4997830;28;20050;-31
2023/05/15 11:08:45;;;;;;;3.83;3.45;;;;;;;;;;4995987;28;20153;-30
2023/05/15 11:12:00;;;;;;;3.63;3.33;;;22.70;74.70;;;;;;5013451;28;20140;-30
2023/05/15 11:14:29;;;;;;;3.90;3.38;;;22.20;63.40;;;;;;4950533;29;20130;-30
2023/05/15 11:16:59;;;;;;;3.60;3.30;;;21.60;54.80;;;;;;4936214;29;20050;-31
2023/05/15 11:19:35;;;;;;;4.93;3.50;;;21.60;54.80;;;;;;4971568;28;20506;-31
2023/05/15 11:22:02;;;;;;;3.67;3.25;;;;;;;;;;4997778;28;20081;-31
2023/05/15 11:24:30;;;;;;;3.58;3.05;;;21.80;74.60;;;;;;4993324;28;20060;-31
2023/05/15 11:27:00;;;;;;;3.55;3.15;;;21.80;74.70;;;;;;5012485;28;20141;-30
2023/05/15 11:29:28;;;;;;;3.67;3.30;;;21.50;67.90;;;;;;5013227;28;20469;-30
2023/05/15 11:31:55;;;;;;;3.58;3.05;;;21.10;64.90;;;;;;5012754;28;20125;-30
2023/05/15 11:34:31;;;;;;;3.63;3.20;;;21.60;54.80;;;;;;5012882;28;20046;-30
2023/05/15 11:36:58;;;;;;;4.45;2.85;;;22.10;75.10;;;;;;5010646;28;20483;-30
2023/05/15 11:39:25;;;;;;;3.78;3.00;;;21.30;60.30;;;;;;5012066;28;20411;-30
2023/05/15 11:41:52;;;;;;;3.83;3.42;;;;;;;;;;5011324;28;20056;-29
2023/05/15 11:44:21;;;;;;;3.55;3.13;;;21.60;54.90;;;;;;5004748;28;20133;-31
2023/05/15 11:46:49;;;;;;;3.95;2.90;;;21.60;54.90;;;;;;5003859;28;20049;-31
2023/05/15 11:49:17;;;;;;;4.20;3.22;;;;;;;;;;5011845;28;20046;-29
2023/05/15 11:51:44;;;;;;;3.50;3.15;;;;;;;;;;5002543;28;20140;-30
2023/05/15 11:54:11;;;;;;;5.95;3.30;;;21.50;62.00;;;;;;5001787;28;20046;-30
2023/05/15 11:56:42;;;;;;;4.72;3.10;;;21.80;73.90;;;;;;5009738;28;20056;-30
2023/05/15 11:59:09;;;;;;;3.78;3.22;;;21.90;58.80;;;;;;5012401;28;20057;-31
2023/05/15 12:01:40;;;;;;;3.65;3.10;;;20.90;73.40;;;;;;5012275;28;20111;-30
2023/05/15 12:04:13;;;;;;;3.20;2.90;;;21.50;55.80;;;;;;5011995;28;20049;-31
2023/05/15 12:06:40;;;;;;;4.97;3.00;;;21.30;73.70;;;;;;5011446;28;20050;-30
2023/05/15 12:09:07;;;;;;;4.30;3.17;;;;;;;;;;5012789;28;20053;-31
2023/05/15 12:11:34;;;;;;;4.72;2.95;;;21.40;74.60;;;;;;5012380;28;20056;-31
2023/05/15 12:14:00;;;;;;;5.50;3.15;;;22.00;74.10;;;;;;5011810;28;20133;-30
2023/05/15 12:16:28;;;;;;;3.65;3.22;;;;;;;;;;5011411;28;20129;-29
2023/05/15 12:18:56;;;;;;;3.05;2.70;;;21.50;74.20;;;;;;5012276;28;20136;-30
2023/05/15 12:21:26;;;;;;;3.20;2.90;;;22.50;75.30;;;;;;5012599;28;20128;-31
2023/05/15 12:23:54;;;;;;;3.83;2.95;;;;;;;;;;5009909;28;20407;-30
2023/05/15 12:26:21;;;;;;;4.10;3.08;;;;;;;;;;5005426;28;20038;-31
2023/05/15 12:28:48;;;;;;;3.97;3.22;;;21.40;70.30;;;;;;5003448;28;20046;-31
2023/05/15 12:31:16;;;;;;;3.20;2.90;;;21.30;73.80;;;;;;4990136;28;20136;-31
2023/05/15 12:33:42;;;;;;;4.18;2.95;;;21.50;73.50;;;;;;4991976;28;20100;-31
2023/05/15 12:36:09;;;;;;;3.30;2.80;;;21.50;73.80;;;;;;5009744;28;20406;-30
2023/05/15 12:38:37;;;;;;;3.17;2.90;;;21.70;55.20;;;;;;5012196;28;20129;-29
2023/05/15 12:41:04;;;;;;;3.42;3.13;;;;;;;;;;5011105;28;20129;-30
2023/05/15 12:43:31;;;;;;;3.30;3.00;;;21.40;73.70;;;;;;5011639;28;20042;-31
2023/05/15 12:45:58;;;;;;;4.40;3.00;;;;;;;;;;5011840;28;20129;-31
2023/05/15 12:48:29;;;;;;;3.97;3.20;;;22.40;74.50;;;;;;5012380;28;20072;-30
2023/05/15 12:50:56;;;;;;;3.10;2.80;;;21.80;75.00;;;;;;5012156;28;20136;-31
2023/05/15 12:53:23;;;;;;;3.42;3.10;;;21.50;58.10;;;;;;5011520;28;20057;-31
2023/05/15 12:55:51;;;;;;;4.05;3.10;;;21.50;74.10;;;;;;5012253;28;20057;-31
2023/05/15 12:58:18;;;;;;;3.28;2.88;;;21.40;74.00;;;;;;5011694;28;20124;-30
2023/05/15 13:00:46;;;;;;;3.25;2.90;;;22.40;60.40;;;;;;4994499;28;20121;-30
2023/05/15 13:03:13;;;;;;;3.10;2.80;;;21.50;57.10;;;;;;5011722;28;20061;-30
2023/05/15 13:05:42;;;;;;;4.35;2.92;;;21.80;74.60;;;;;;5011784;28;20049;-31
2023/05/15 13:08:09;;;;;;;3.17;2.88;;;;;;;;;;5011948;28;20052;-31
2023/05/15 13:10:37;;;;;;;3.70;3.10;;;21.00;74.70;;;;;;5011938;28;20046;-31
2023/05/15 13:13:05;;;;;;;3.42;3.13;;;21.70;55.60;;;;;;5011072;28;20049;-30